sensor_id;sensor_type;location;lat;lon;timestamp;pressure;altitude;pressure_sealevel;temperature;humidity
44079;BME280;29744;49.078;12.878;2023-05-25T00:02:46;96817.41;;;17.12;38.88
44079;BME280;29744;49.078;12.878;2023-05-25T00:07:46;96811.97;;;17.12;38.80
44079;BME280;29744;49.078;12.878;2023-05-25T00:12:47;96814.69;;;17.12;38.87
44079;BME280;29744;49.078;12.878;2023-05-25T00:17:47;96816.59;;;17.11;39.00
44079;BME280;29744;49.078;12.878;2023-05-25T00:22:47;96818.53;;;17.11;39.05
44079;BME280;29744;49.078;12.878;2023-05-25T00:27:48;96814.69;;;17.12;39.18
44079;BME280;29744;49.078;12.878;2023-05-25T00:32:48;96813.91;;;17.11;38.86
44079;BME280;29744;49.078;12.878;2023-05-25T00:37:48;96812.31;;;17.10;38.94
44079;BME280;29744;49.078;12.878;2023-05-25T00:42:51;96803.41;;;17.10;38.83
44079;BME280;29744;49.078;12.878;2023-05-25T00:47:51;96807.69;;;17.11;38.86
44079;BME280;29744;49.078;12.878;2023-05-25T00:52:52;96803.41;;;17.10;38.88
44079;BME280;29744;49.078;12.878;2023-05-25T00:57:53;96809.59;;;17.10;38.49
44079;BME280;29744;49.078;12.878;2023-05-25T01:02:55;96796.06;;;17.10;38.67
44079;BME280;29744;49.078;12.878;2023-05-25T01:07:57;96797.97;;;17.10;38.79
44079;BME280;29744;49.078;12.878;2023-05-25T01:13:01;96803.41;;;17.10;39.08
44079;BME280;29744;49.078;12.878;2023-05-25T01:18:02;96805.31;;;17.09;39.13
44079;BME280;29744;49.078;12.878;2023-05-25T01:23:11;96804.53;;;17.09;38.94
44079;BME280;29744;49.078;12.878;2023-05-25T01:28:17;96806.44;;;17.08;38.71
44079;BME280;29744;49.078;12.878;2023-05-25T01:33:20;96811.84;;;17.08;38.89
44079;BME280;29744;49.078;12.878;2023-05-25T01:38:21;96816.47;;;17.08;39.03
44079;BME280;29744;49.078;12.878;2023-05-25T01:43:22;96824.59;;;17.08;38.67
44079;BME280;29744;49.078;12.878;2023-05-25T01:48:29;96823.81;;;17.07;38.64
44079;BME280;29744;49.078;12.878;2023-05-25T01:53:41;96826.19;;;17.09;38.70
44079;BME280;29744;49.078;12.878;2023-05-25T01:58:44;96823.03;;;17.07;39.05
44079;BME280;29744;49.078;12.878;2023-05-25T02:03:46;96819.19;;;17.08;38.73
44079;BME280;29744;49.078;12.878;2023-05-25T02:08:48;96816.47;;;17.08;38.47
44079;BME280;29744;49.078;12.878;2023-05-25T02:13:48;96809.47;;;17.07;38.51
44079;BME280;29744;49.078;12.878;2023-05-25T02:18:48;96823.03;;;17.07;38.75
44079;BME280;29744;49.078;12.878;2023-05-25T02:23:49;96812.19;;;17.07;38.79
44079;BME280;29744;49.078;12.878;2023-05-25T02:28:51;96810.59;;;17.05;39.00
44079;BME280;29744;49.078;12.878;2023-05-25T02:33:51;96812.50;;;17.05;38.48
44079;BME280;29744;49.078;12.878;2023-05-25T02:38:51;96816.81;;;17.06;38.94
44079;BME280;29744;49.078;12.878;2023-05-25T02:43:52;96812.50;;;17.05;38.73
44079;BME280;29744;49.078;12.878;2023-05-25T02:48:53;96807.88;;;17.05;38.51
44079;BME280;29744;49.078;12.878;2023-05-25T02:53:53;96815.22;;;17.05;38.81
44079;BME280;29744;49.078;12.878;2023-05-25T02:58:53;96814.44;;;17.04;38.70
44079;BME280;29744;49.078;12.878;2023-05-25T03:03:54;96826.84;;;17.05;38.50
44079;BME280;29744;49.078;12.878;2023-05-25T03:08:54;96831.47;;;17.05;38.83
44079;BME280;29744;49.078;12.878;2023-05-25T03:13:54;96831.81;;;17.03;38.82
44079;BME280;29744;49.078;12.878;2023-05-25T03:18:54;96838.81;;;17.04;38.40
44079;BME280;29744;49.078;12.878;2023-05-25T03:23:55;96833.41;;;17.04;38.60
44079;BME280;29744;49.078;12.878;2023-05-25T03:28:55;96826.41;;;17.03;38.64
44079;BME280;29744;49.078;12.878;2023-05-25T03:33:55;96829.09;;;17.03;38.59
44079;BME280;29744;49.078;12.878;2023-05-25T03:38:55;96838.34;;;17.02;38.87
44079;BME280;29744;49.078;12.878;2023-05-25T03:43:56;96839.94;;;17.03;38.66
44079;BME280;29744;49.078;12.878;2023-05-25T03:48:56;96849.19;;;17.02;38.67
44079;BME280;29744;49.078;12.878;2023-05-25T03:53:56;96838.03;;;17.04;38.50
44079;BME280;29744;49.078;12.878;2023-05-25T03:58:57;96838.03;;;17.04;38.54
44079;BME280;29744;49.078;12.878;2023-05-25T04:03:57;96838.34;;;17.02;38.52
44079;BME280;29744;49.078;12.878;2023-05-25T04:08:57;96846.16;;;17.04;38.79
44079;BME280;29744;49.078;12.878;2023-05-25T04:13:58;96849.97;;;17.03;38.62
44079;BME280;29744;49.078;12.878;2023-05-25T04:18:59;96850.78;;;17.03;38.71
44079;BME280;29744;49.078;12.878;2023-05-25T04:23:59;96848.06;;;17.03;38.90
44079;BME280;29744;49.078;12.878;2023-05-25T04:29:00;96853.50;;;17.03;38.51
44079;BME280;29744;49.078;12.878;2023-05-25T04:34:01;96859.69;;;17.04;38.60
44079;BME280;29744;49.078;12.878;2023-05-25T04:39:01;96857.00;;;17.04;38.59
44079;BME280;29744;49.078;12.878;2023-05-25T04:44:02;96858.56;;;17.05;38.51
44079;BME280;29744;49.078;12.878;2023-05-25T04:49:03;96860.16;;;17.06;38.63
44079;BME280;29744;49.078;12.878;2023-05-25T04:54:07;96860.97;;;17.07;38.57
44079;BME280;29744;49.078;12.878;2023-05-25T04:59:07;96866.06;;;17.08;38.87
44079;BME280;29744;49.078;12.878;2023-05-25T05:04:08;96858.72;;;17.09;38.28
44079;BME280;29744;49.078;12.878;2023-05-25T05:09:08;96860.31;;;17.10;38.56
44079;BME280;29744;49.078;12.878;2023-05-25T05:14:08;96868.88;;;17.12;38.72
44079;BME280;29744;49.078;12.878;2023-05-25T05:19:09;96872.06;;;17.14;38.58
44079;BME280;29744;49.078;12.878;2023-05-25T05:24:09;96870.16;;;17.14;38.42
44079;BME280;29744;49.078;12.878;2023-05-25T05:29:09;96869.03;;;17.15;38.51
44079;BME280;29744;49.078;12.878;2023-05-25T05:34:09;96873.31;;;17.16;38.38
44079;BME280;29744;49.078;12.878;2023-05-25T05:39:10;96875.69;;;17.18;38.65
44079;BME280;29744;49.078;12.878;2023-05-25T05:44:10;96878.75;;;17.16;38.50
44079;BME280;29744;49.078;12.878;2023-05-25T05:49:13;96881.13;;;17.18;38.36
44079;BME280;29744;49.078;12.878;2023-05-25T05:54:14;96882.72;;;17.19;38.72
44079;BME280;29744;49.078;12.878;2023-05-25T05:59:14;96881.59;;;17.20;38.13
44079;BME280;29744;49.078;12.878;2023-05-25T06:04:14;96887.00;;;17.20;38.81
44079;BME280;29744;49.078;12.878;2023-05-25T06:09:16;96883.97;;;17.21;38.43
44079;BME280;29744;49.078;12.878;2023-05-25T06:14:16;96883.97;;;17.21;38.57
44079;BME280;29744;49.078;12.878;2023-05-25T06:19:16;96889.38;;;17.21;38.08
44079;BME280;29744;49.078;12.878;2023-05-25T06:24:17;96886.34;;;17.23;38.55
44079;BME280;29744;49.078;12.878;2023-05-25T06:29:17;96892.56;;;17.23;38.27
44079;BME280;29744;49.078;12.878;2023-05-25T06:34:17;96887.94;;;17.24;38.23
44079;BME280;29744;49.078;12.878;2023-05-25T06:39:18;96889.84;;;17.23;38.57
44079;BME280;29744;49.078;12.878;2023-05-25T06:44:18;96891.44;;;17.24;38.27
44079;BME280;29744;49.078;12.878;2023-05-25T06:49:18;96887.94;;;17.24;38.42
44079;BME280;29744;49.078;12.878;2023-05-25T06:54:18;96898.44;;;17.25;38.04
44079;BME280;29744;49.078;12.878;2023-05-25T06:59:19;96890.31;;;17.25;38.55
44079;BME280;29744;49.078;12.878;2023-05-25T07:04:19;96880.59;;;17.24;38.29
44079;BME280;29744;49.078;12.878;2023-05-25T07:09:21;96888.72;;;17.24;38.01
44079;BME280;29744;49.078;12.878;2023-05-25T07:14:21;96888.41;;;17.26;38.61
44079;BME280;29744;49.078;12.878;2023-05-25T07:19:22;96886.81;;;17.25;38.55
44079;BME280;29744;49.078;12.878;2023-05-25T07:24:22;96881.38;;;17.25;38.14
44079;BME280;29744;49.078;12.878;2023-05-25T07:29:22;96881.38;;;17.25;38.36
44079;BME280;29744;49.078;12.878;2023-05-25T07:34:22;96889.53;;;17.25;38.13
44079;BME280;29744;49.078;12.878;2023-05-25T07:39:23;96891.44;;;17.24;38.11
44079;BME280;29744;49.078;12.878;2023-05-25T07:44:23;96887.13;;;17.23;38.40
44079;BME280;29744;49.078;12.878;2023-05-25T07:49:23;96891.44;;;17.24;38.35
44079;BME280;29744;49.078;12.878;2023-05-25T07:54:24;96901.16;;;17.25;37.94
44079;BME280;29744;49.078;12.878;2023-05-25T07:59:25;96898.78;;;17.24;38.41
44079;BME280;29744;49.078;12.878;2023-05-25T08:04:25;96894.94;;;17.25;38.14
44079;BME280;29744;49.078;12.878;2023-05-25T08:09:25;96897.66;;;17.25;38.33
44079;BME280;29744;49.078;12.878;2023-05-25T08:14:25;96900.06;;;17.26;38.36
44079;BME280;29744;49.078;12.878;2023-05-25T08:19:26;96896.22;;;17.27;38.60
44079;BME280;29744;49.078;12.878;2023-05-25T08:24:26;96900.53;;;17.28;38.31
44079;BME280;29744;49.078;12.878;2023-05-25T08:29:26;96910.56;;;17.28;38.60
44079;BME280;29744;49.078;12.878;2023-05-25T08:34:27;96907.06;;;17.27;38.78
44079;BME280;29744;49.078;12.878;2023-05-25T08:39:28;96908.19;;;17.26;38.52
44079;BME280;29744;49.078;12.878;2023-05-25T08:44:29;96907.38;;;17.26;38.55
44079;BME280;29744;49.078;12.878;2023-05-25T08:49:29;96909.63;;;17.24;38.43
44079;BME280;29744;49.078;12.878;2023-05-25T08:54:35;96914.25;;;17.23;38.66
44079;BME280;29744;49.078;12.878;2023-05-25T08:59:46;96904.84;;;17.21;38.69
44079;BME280;29744;49.078;12.878;2023-05-25T09:04:49;96907.56;;;17.21;38.62
44079;BME280;29744;49.078;12.878;2023-05-25T09:09:50;96911.41;;;17.20;38.65
44079;BME280;29744;49.078;12.878;2023-05-25T09:14:51;96910.59;;;17.19;39.01
44079;BME280;29744;49.078;12.878;2023-05-25T09:19:53;96917.94;;;17.19;38.62
44079;BME280;29744;49.078;12.878;2023-05-25T09:24:53;96910.16;;;17.17;38.96
44079;BME280;29744;49.078;12.878;2023-05-25T09:29:54;96911.25;;;17.16;38.64
44079;BME280;29744;49.078;12.878;2023-05-25T09:35:08;96908.56;;;17.16;38.47
44079;BME280;29744;49.078;12.878;2023-05-25T09:40:09;96910.81;;;17.14;38.90
44079;BME280;29744;49.078;12.878;2023-05-25T09:45:10;96918.13;;;17.14;38.99
44079;BME280;29744;49.078;12.878;2023-05-25T09:50:10;96917.34;;;17.13;38.65
44079;BME280;29744;49.078;12.878;2023-05-25T09:55:10;96915.75;;;17.12;38.65
44079;BME280;29744;49.078;12.878;2023-05-25T10:00:12;96913.03;;;17.12;38.59
44079;BME280;29744;49.078;12.878;2023-05-25T10:05:12;96916.88;;;17.11;38.65
44079;BME280;29744;49.078;12.878;2023-05-25T10:10:13;96905.25;;;17.11;38.83
44079;BME280;29744;49.078;12.878;2023-05-25T10:15:17;96907.94;;;17.11;38.95
44079;BME280;29744;49.078;12.878;2023-05-25T10:20:21;96910.66;;;17.11;38.86
44079;BME280;29744;49.078;12.878;2023-05-25T10:25:29;96904.44;;;17.10;39.21
44079;BME280;29744;49.078;12.878;2023-05-25T10:30:31;96897.44;;;17.09;38.55
44079;BME280;29744;49.078;12.878;2023-05-25T10:35:33;96900.16;;;17.09;38.97
44079;BME280;29744;49.078;12.878;2023-05-25T10:40:34;96892.03;;;17.09;39.21
44079;BME280;29744;49.078;12.878;2023-05-25T10:45:35;96890.44;;;17.08;38.88
44079;BME280;29744;49.078;12.878;2023-05-25T10:50:35;96889.63;;;17.08;38.88
44079;BME280;29744;49.078;12.878;2023-05-25T11:00:56;96888.38;;;17.05;38.72
44079;BME280;29744;49.078;12.878;2023-05-25T11:05:57;96887.25;;;17.06;38.67
44079;BME280;29744;49.078;12.878;2023-05-25T11:10:57;96883.44;;;17.07;39.20
44079;BME280;29744;49.078;12.878;2023-05-25T11:21:12;96877.22;;;17.07;39.10
44079;BME280;29744;49.078;12.878;2023-05-25T11:26:19;96876.41;;;17.06;39.09
44079;BME280;29744;49.078;12.878;2023-05-25T11:31:29;96872.91;;;17.05;38.82
44079;BME280;29744;49.078;12.878;2023-05-25T11:36:31;96864.78;;;17.05;39.27
44079;BME280;29744;49.078;12.878;2023-05-25T11:41:32;96866.72;;;17.05;39.23
44079;BME280;29744;49.078;12.878;2023-05-25T11:46:32;96858.56;;;17.05;39.27
44079;BME280;29744;49.078;12.878;2023-05-25T11:51:34;96858.56;;;17.05;39.27
44079;BME280;29744;49.078;12.878;2023-05-25T11:56:35;96855.06;;;17.04;39.30
44079;BME280;29744;49.078;12.878;2023-05-25T12:01:36;96862.41;;;17.04;38.77
44079;BME280;29744;49.078;12.878;2023-05-25T12:06:36;96855.88;;;17.05;39.36
44079;BME280;29744;49.078;12.878;2023-05-25T12:11:37;96855.41;;;17.03;38.73
44079;BME280;29744;49.078;12.878;2023-05-25T12:16:38;96852.38;;;17.04;38.86
44079;BME280;29744;49.078;12.878;2023-05-25T12:21:40;96857.78;;;17.04;39.02
44079;BME280;29744;49.078;12.878;2023-05-25T12:26:51;96855.41;;;17.03;38.83
44079;BME280;29744;49.078;12.878;2023-05-25T12:32:03;96855.41;;;17.03;39.19
44079;BME280;29744;49.078;12.878;2023-05-25T12:37:04;96846.16;;;17.04;38.90
44079;BME280;29744;49.078;12.878;2023-05-25T12:42:11;96844.56;;;17.03;38.97
44079;BME280;29744;49.078;12.878;2023-05-25T12:47:14;96846.94;;;17.04;39.43
44079;BME280;29744;49.078;12.878;2023-05-25T12:57:34;96851.56;;;17.04;39.24
44079;BME280;29744;49.078;12.878;2023-05-25T13:02:35;96839.94;;;17.03;39.17
44079;BME280;29744;49.078;12.878;2023-05-25T13:07:35;96839.16;;;17.03;39.28
44079;BME280;29744;49.078;12.878;2023-05-25T13:12:35;96849.97;;;17.03;39.21
44079;BME280;29744;49.078;12.878;2023-05-25T13:17:36;96846.94;;;17.04;39.13
44079;BME280;29744;49.078;12.878;2023-05-25T13:22:36;96845.34;;;17.03;39.39
44079;BME280;29744;49.078;12.878;2023-05-25T13:27:36;96848.88;;;17.04;39.22
44079;BME280;29744;49.078;12.878;2023-05-25T13:32:38;96839.94;;;17.03;39.37
44079;BME280;29744;49.078;12.878;2023-05-25T13:37:38;96851.56;;;17.04;39.39
44079;BME280;29744;49.078;12.878;2023-05-25T13:42:39;96849.97;;;17.03;38.88
44079;BME280;29744;49.078;12.878;2023-05-25T13:47:39;96849.97;;;17.03;39.49
44079;BME280;29744;49.078;12.878;2023-05-25T13:52:42;96845.34;;;17.03;38.96
44079;BME280;29744;49.078;12.878;2023-05-25T13:57:42;96854.28;;;17.04;39.36
44079;BME280;29744;49.078;12.878;2023-05-25T14:02:42;96836.09;;;17.04;39.29
44079;BME280;29744;49.078;12.878;2023-05-25T14:07:43;96843.44;;;17.04;39.29
44079;BME280;29744;49.078;12.878;2023-05-25T14:12:43;96830.69;;;17.04;39.21
44079;BME280;29744;49.078;12.878;2023-05-25T14:17:43;96821.75;;;17.04;39.04
44079;BME280;29744;49.078;12.878;2023-05-25T14:22:44;96821.31;;;17.02;39.24
44079;BME280;29744;49.078;12.878;2023-05-25T14:27:44;96825.59;;;17.03;39.30
44079;BME280;29744;49.078;12.878;2023-05-25T14:32:45;96817.47;;;17.03;39.58
44079;BME280;29744;49.078;12.878;2023-05-25T14:37:45;96810.47;;;17.02;39.50
44079;BME280;29744;49.078;12.878;2023-05-25T14:42:45;96816.34;;;17.04;39.39
44079;BME280;29744;49.078;12.878;2023-05-25T14:47:46;96822.88;;;17.03;39.33
44079;BME280;29744;49.078;12.878;2023-05-25T14:52:46;96808.22;;;17.04;39.31
44079;BME280;29744;49.078;12.878;2023-05-25T14:57:46;96810.94;;;17.04;39.03
44079;BME280;29744;49.078;12.878;2023-05-25T15:02:47;96802.00;;;17.03;39.00
44079;BME280;29744;49.078;12.878;2023-05-25T15:07:47;96811.72;;;17.04;39.11
44079;BME280;29744;49.078;12.878;2023-05-25T15:12:47;96806.31;;;17.04;39.26
44079;BME280;29744;49.078;12.878;2023-05-25T15:17:47;96807.44;;;17.03;39.51
44079;BME280;29744;49.078;12.878;2023-05-25T15:22:48;96803.59;;;17.04;39.32
44079;BME280;29744;49.078;12.878;2023-05-25T15:27:50;96805.50;;;17.04;39.56
44079;BME280;29744;49.078;12.878;2023-05-25T15:32:50;96816.00;;;17.05;39.21
44079;BME280;29744;49.078;12.878;2023-05-25T15:37:50;96809.81;;;17.05;39.43
44079;BME280;29744;49.078;12.878;2023-05-25T15:42:50;96819.53;;;17.06;39.51
44079;BME280;29744;49.078;12.878;2023-05-25T15:47:51;96815.22;;;17.05;39.35
44079;BME280;29744;49.078;12.878;2023-05-25T15:52:51;96815.22;;;17.05;39.60
44079;BME280;29744;49.078;12.878;2023-05-25T15:57:51;96815.22;;;17.05;39.50
44079;BME280;29744;49.078;12.878;2023-05-25T16:02:52;96804.38;;;17.05;39.29
44079;BME280;29744;49.078;12.878;2023-05-25T16:07:52;96816.81;;;17.06;39.44
44079;BME280;29744;49.078;12.878;2023-05-25T16:12:52;96812.50;;;17.05;39.22
44079;BME280;29744;49.078;12.878;2023-05-25T16:17:52;96801.34;;;17.07;39.42
44079;BME280;29744;49.078;12.878;2023-05-25T16:22:53;96815.69;;;17.07;39.28
44079;BME280;29744;49.078;12.878;2023-05-25T16:27:53;96814.88;;;17.07;39.68
44079;BME280;29744;49.078;12.878;2023-05-25T16:32:53;96811.38;;;17.06;39.23
44079;BME280;29744;49.078;12.878;2023-05-25T16:37:53;96814.88;;;17.07;39.51
44079;BME280;29744;49.078;12.878;2023-05-25T16:42:54;96817.59;;;17.07;39.67
44079;BME280;29744;49.078;12.878;2023-05-25T16:47:54;96814.88;;;17.07;39.42
44079;BME280;29744;49.078;12.878;2023-05-25T16:52:54;96812.19;;;17.07;39.59
44079;BME280;29744;49.078;12.878;2023-05-25T16:57:55;96814.09;;;17.06;39.43
44079;BME280;29744;49.078;12.878;2023-05-25T17:02:56;96806.75;;;17.07;39.22
44079;BME280;29744;49.078;12.878;2023-05-25T17:07:56;96821.91;;;17.08;39.26
44079;BME280;29744;49.078;12.878;2023-05-25T17:12:56;96808.22;;;17.04;39.45
44079;BME280;29744;49.078;12.878;2023-05-25T17:17:57;96809.81;;;17.05;39.53
44079;BME280;29744;49.078;12.878;2023-05-25T17:22:57;96814.09;;;17.06;39.68
44079;BME280;29744;49.078;12.878;2023-05-25T17:27:57;96814.09;;;17.06;39.48
44079;BME280;29744;49.078;12.878;2023-05-25T17:32:57;96822.22;;;17.06;39.66
44079;BME280;29744;49.078;12.878;2023-05-25T17:38:00;96821.44;;;17.05;39.66
44079;BME280;29744;49.078;12.878;2023-05-25T17:43:00;96823.34;;;17.05;39.53
44079;BME280;29744;49.078;12.878;2023-05-25T17:48:00;96826.84;;;17.05;39.29
44079;BME280;29744;49.078;12.878;2023-05-25T17:53:01;96826.06;;;17.05;39.55
44079;BME280;29744;49.078;12.878;2023-05-25T17:58:01;96828.78;;;17.05;39.71
44079;BME280;29744;49.078;12.878;2023-05-25T18:03:02;96835.78;;;17.06;39.63
44079;BME280;29744;49.078;12.878;2023-05-25T18:08:02;96838.03;;;17.04;39.87
44079;BME280;29744;49.078;12.878;2023-05-25T18:13:04;96838.03;;;17.04;39.48
44079;BME280;29744;49.078;12.878;2023-05-25T18:18:04;96849.97;;;17.03;39.71
44079;BME280;29744;49.078;12.878;2023-05-25T18:23:06;96854.59;;;17.02;39.68
44079;BME280;29744;49.078;12.878;2023-05-25T18:28:07;96855.41;;;17.03;39.74
44079;BME280;29744;49.078;12.878;2023-05-25T18:33:07;96849.53;;;17.01;39.75
44079;BME280;29744;49.078;12.878;2023-05-25T18:38:09;96861.16;;;17.01;39.80
44079;BME280;29744;49.078;12.878;2023-05-25T18:43:09;96862.28;;;17.00;39.91
44079;BME280;29744;49.078;12.878;2023-05-25T18:48:12;96866.09;;;16.99;39.58
44079;BME280;29744;49.078;12.878;2023-05-25T18:53:13;96871.53;;;16.99;39.92
44079;BME280;29744;49.078;12.878;2023-05-25T18:58:13;96868.03;;;16.99;39.65
44079;BME280;29744;49.078;12.878;2023-05-25T19:03:13;96871.84;;;16.98;39.98
44079;BME280;29744;49.078;12.878;2023-05-25T19:08:13;96873.78;;;16.97;39.65
44079;BME280;29744;49.078;12.878;2023-05-25T19:13:14;96880.78;;;16.98;39.86
44079;BME280;29744;49.078;12.878;2023-05-25T19:18:14;96893.84;;;16.96;40.13
44079;BME280;29744;49.078;12.878;2023-05-25T19:23:14;96891.16;;;16.96;39.84
44079;BME280;29744;49.078;12.878;2023-05-25T19:28:15;96893.84;;;16.96;40.34
44079;BME280;29744;49.078;12.878;2023-05-25T19:33:15;96902.31;;;16.95;40.41
44079;BME280;29744;49.078;12.878;2023-05-25T19:38:15;96905.81;;;16.95;40.20
44079;BME280;29744;49.078;12.878;2023-05-25T19:43:16;96908.84;;;16.94;40.01
44079;BME280;29744;49.078;12.878;2023-05-25T19:48:16;96910.44;;;16.95;39.93
44079;BME280;29744;49.078;12.878;2023-05-25T19:53:18;96903.44;;;16.94;40.07
44079;BME280;29744;49.078;12.878;2023-05-25T19:58:18;96918.91;;;16.93;39.93
44079;BME280;29744;49.078;12.878;2023-05-25T20:03:18;96928.63;;;16.94;40.49
44079;BME280;29744;49.078;12.878;2023-05-25T20:08:19;96927.03;;;16.93;40.17
44079;BME280;29744;49.078;12.878;2023-05-25T20:13:20;96930.84;;;16.92;40.39
44079;BME280;29744;49.078;12.878;2023-05-25T20:18:20;96937.06;;;16.93;40.30
44079;BME280;29744;49.078;12.878;2023-05-25T20:23:22;96935.47;;;16.92;40.17
44079;BME280;29744;49.078;12.878;2023-05-25T20:28:23;96939.31;;;16.91;40.33
44079;BME280;29744;49.078;12.878;2023-05-25T20:33:23;96942.81;;;16.91;40.37
44079;BME280;29744;49.078;12.878;2023-05-25T20:38:23;96943.13;;;16.90;40.36
44079;BME280;29744;49.078;12.878;2023-05-25T20:43:23;96946.63;;;16.90;40.11
44079;BME280;29744;49.078;12.878;2023-05-25T20:48:24;96952.06;;;16.90;40.48
44079;BME280;29744;49.078;12.878;2023-05-25T20:53:24;96960.50;;;16.89;40.52
44079;BME280;29744;49.078;12.878;2023-05-25T20:58:25;96963.22;;;16.89;40.57
44079;BME280;29744;49.078;12.878;2023-05-25T21:03:25;96957.81;;;16.89;40.22
44079;BME280;29744;49.078;12.878;2023-05-25T21:08:25;96969.44;;;16.89;40.19
44079;BME280;29744;49.078;12.878;2023-05-25T21:13:26;96972.47;;;16.88;40.11
44079;BME280;29744;49.078;12.878;2023-05-25T21:18:26;96977.09;;;16.87;40.56
44079;BME280;29744;49.078;12.878;2023-05-25T21:23:26;96975.50;;;16.86;40.37
44079;BME280;29744;49.078;12.878;2023-05-25T21:28:27;96972.78;;;16.86;40.42
44079;BME280;29744;49.078;12.878;2023-05-25T21:33:28;96983.94;;;16.85;40.57
44079;BME280;29744;49.078;12.878;2023-05-25T21:38:29;96977.41;;;16.86;40.16
44079;BME280;29744;49.078;12.878;2023-05-25T21:43:30;96977.75;;;16.84;40.12
44079;BME280;29744;49.078;12.878;2023-05-25T21:48:30;96976.94;;;16.84;40.20
44079;BME280;29744;49.078;12.878;2023-05-25T21:53:30;96980.44;;;16.84;40.49
44079;BME280;29744;49.078;12.878;2023-05-25T21:58:32;96981.56;;;16.83;40.21
44079;BME280;29744;49.078;12.878;2023-05-25T22:03:32;96999.75;;;16.83;40.40
44079;BME280;29744;49.078;12.878;2023-05-25T22:08:32;97012.50;;;16.82;40.19
44079;BME280;29744;49.078;12.878;2023-05-25T22:13:33;97013.59;;;16.81;40.45
44079;BME280;29744;49.078;12.878;2023-05-25T22:18:33;97015.19;;;16.82;40.52
44079;BME280;29744;49.078;12.878;2023-05-25T22:23:33;97009.31;;;16.80;40.17
44079;BME280;29744;49.078;12.878;2023-05-25T22:28:34;97016.63;;;16.80;40.65
44079;BME280;29744;49.078;12.878;2023-05-25T22:33:34;97008.50;;;16.80;40.50
44079;BME280;29744;49.078;12.878;2023-05-25T22:38:34;96998.47;;;16.80;40.23
44079;BME280;29744;49.078;12.878;2023-05-25T22:43:34;97000.38;;;16.80;40.25
44079;BME280;29744;49.078;12.878;2023-05-25T22:48:35;97005.81;;;16.80;40.67
44079;BME280;29744;49.078;12.878;2023-05-25T22:53:35;97004.22;;;16.79;40.47
44079;BME280;29744;49.078;12.878;2023-05-25T22:58:35;97006.91;;;16.79;40.75
44079;BME280;29744;49.078;12.878;2023-05-25T23:03:35;97008.03;;;16.78;40.73
44079;BME280;29744;49.078;12.878;2023-05-25T23:08:36;97010.75;;;16.78;40.66
44079;BME280;29744;49.078;12.878;2023-05-25T23:13:36;97013.47;;;16.78;40.25
44079;BME280;29744;49.078;12.878;2023-05-25T23:18:36;97007.25;;;16.77;40.49
44079;BME280;29744;49.078;12.878;2023-05-25T23:23:36;97012.66;;;16.77;40.22
44079;BME280;29744;49.078;12.878;2023-05-25T23:28:37;97021.59;;;16.78;40.66
44079;BME280;29744;49.078;12.878;2023-05-25T23:33:37;97017.28;;;16.77;40.74
44079;BME280;29744;49.078;12.878;2023-05-25T23:38:37;97023.81;;;16.76;40.59
44079;BME280;29744;49.078;12.878;2023-05-25T23:43:38;97028.44;;;16.75;40.25
44079;BME280;29744;49.078;12.878;2023-05-25T23:48:38;97026.53;;;16.76;40.45
44079;BME280;29744;49.078;12.878;2023-05-25T23:53:38;97035.78;;;16.75;40.58
44079;BME280;29744;49.078;12.878;2023-05-25T23:58:38;97038.47;;;16.75;40.25
